Chicago Bridge — H9NR — position and weather

sailwx.info

Track history (hours):
 
Tides and Currents Weather Stations Pressure Air Temp Water Temp Dewpoint Dewpoint Depression Visibility Wind Speed Wind Dir Waves Ship Positions

Chicago Bridge

Last reported at 2015-Apr-17 02:16 UTC. Time now 2015-Apr-19 14:12 UTC.
Position N 24°34' E 119°08'.

Length 279 m; draft 12.3 m.

Type: Ship (hazmat cat B). MMSI: 352018000.

Date/timePositionNaut miles runAvg speedWind from/ knotsBaromVisibWave heightAir tempDewpointWater temp
2015-Apr-17 02:16N 24°34' E 119°08'1317.7
2015-Apr-17 01:33N 24°28' E 118°56'1717.3
2015-Apr-17 00:33N 24°21' E 118°39'1413.7
2015-Apr-16 23:33N 24°15' E 118°25'1212.3
2015-Apr-16 22:33N 24°19' E 118°12'1110.7
2015-Apr-16 21:33N 24°26' E 118°03'4 2.0
2015-Apr-16 19:16N 24°27' E 117°58'0 0.0
2015-Apr-16 18:04N 24°27' E 117°58'0 0.0
2015-Apr-16 17:10N 24°27' E 117°58'0 0.0
2015-Apr-16 16:10N 24°27' E 117°58'0 0.0
2015-Apr-16 12:22N 24°27' E 117°58'0 0.0
2015-Apr-16 11:22N 24°27' E 117°58'0 0.0
2015-Apr-16 10:10N 24°27' E 117°58'0 0.0
2015-Apr-16 09:10N 24°27' E 117°58'0 0.0
2015-Apr-16 07:16N 24°27' E 117°58'0 0.0
2015-Apr-16 06:22N 24°27' E 117°58'0 0.0
2015-Apr-16 02:16N 24°27' E 117°58'0 0.0
2015-Apr-15 23:16N 24°27' E 117°58'1 1.6
2015-Apr-15 22:33N 24°27' E 117°60'1010.0
2015-Apr-15 21:33N 24°21' E 118°09'7 7.0
2015-Apr-15 20:32N 24°16' E 118°14'1010.2
2015-Apr-15 19:33N 24°08' E 118°20'1211.9
2015-Apr-15 18:32N 23°57' E 118°13'1212.5
2015-Apr-15 17:33N 23°48' E 118°04'1212.0
2015-Apr-15 16:33N 23°38' E 117°57'1212.5
2015-Apr-15 15:33N 23°30' E 117°46'202 6.4
2015-Apr-14 08:07N 22°34' E 114°16'0 0.0
2015-Apr-14 03:31N 22°34' E 114°16'0 0.2
2015-Apr-14 01:31N 22°34' E 114°16'21 4.8
2015-Apr-13 21:10N 22°17' E 114°29'1 1.1
2015-Apr-13 20:22N 22°18' E 114°30'6 3.1
2015-Apr-13 18:33N 22°12' E 114°28'1311.9
2015-Apr-13 17:26N 22°08' E 114°15'1211.0
2015-Apr-13 16:23N 22°16' E 114°06'4 3.8
2015-Apr-13 15:28N 22°20' E 114°08'0 0.0
2015-Apr-13 14:31N 22°20' E 114°08'0 0.0
2015-Apr-13 13:25N 22°20' E 114°08'0 0.0
2015-Apr-13 11:34N 22°20' E 114°08'0 0.0
2015-Apr-13 10:33N 22°20' E 114°08'0 0.0
2015-Apr-13 09:03N 22°20' E 114°08'0 0.0
2015-Apr-13 08:27N 22°20' E 114°08'0 0.0
2015-Apr-13 06:27N 22°20' E 114°08'0 0.0
2015-Apr-13 05:21N 22°20' E 114°08'0 0.0
2015-Apr-13 04:21N 22°20' E 114°08'0 0.0
2015-Apr-13 02:30N 22°20' E 114°08'0 0.0
2015-Apr-13 01:06N 22°20' E 114°08'0 0.0
2015-Apr-13 00:30N 22°20' E 114°08'0 0.0
2015-Apr-12 23:21N 22°20' E 114°08'0 0.0
2015-Apr-12 22:30N 22°20' E 114°08'0 0.0
2015-Apr-12 21:33N 22°20' E 114°08'0 0.0
2015-Apr-12 20:33N 22°20' E 114°08'0 0.2
2015-Apr-12 19:32N 22°20' E 114°07'7 6.6
2015-Apr-12 18:26N 22°13' E 114°10'8 7.6
2015-Apr-12 17:24N 22°09' E 114°17'7 8.1
2015-Apr-12 16:32N 22°11' E 114°24'1 0.7
2015-Apr-12 15:32N 22°12' E 114°25'1 1.3
2015-Apr-12 14:33N 22°13' E 114°26'8 7.3
2015-Apr-12 13:28N 22°20' E 114°30'18 1.1
2015-Apr-11 22:03N 22°34' E 114°19'17 6.7
2015-Apr-11 19:33N 22°23' E 114°32'2 0.1
2015-Apr-10 08:32N 22°23' E 114°35'0 0.0
2015-Apr-09 14:32N 22°23' E 114°35'0 0.0
2015-Apr-09 13:29N 22°23' E 114°35'0 0.0
2015-Apr-09 12:32N 22°23' E 114°35'0 0.1
2015-Apr-09 11:32N 22°23' E 114°35'26510.1
2015-Apr-08 09:10N 24°18' E 118°55'2313.7
2015-Apr-08 07:31N 24°31' E 119°15'  
Track history (hours):
 
Tides and Currents Weather Stations Pressure Air Temp Water Temp Dewpoint Dewpoint Depression Visibility Wind Speed Wind Dir Waves Ship Positions

Chicago Bridge

Last reported at 2015-Apr-17 02:16 UTC. Time now 2015-Apr-19 14:12 UTC.
Position N 24°34' E 119°08'.

Length 279 m; draft 12.3 m.

Type: Ship (hazmat cat B). MMSI: 352018000.

Date/timePositionNaut miles runAvg speedWind from/ knotsBaromVisibWave heightAir tempDewpointWater temp
2015-Apr-17 02:16N 24°34' E 119°08'1317.7
2015-Apr-17 01:33N 24°28' E 118°56'1717.3
2015-Apr-17 00:33N 24°21' E 118°39'1413.7
2015-Apr-16 23:33N 24°15' E 118°25'1212.3
2015-Apr-16 22:33N 24°19' E 118°12'1110.7
2015-Apr-16 21:33N 24°26' E 118°03'4 2.0
2015-Apr-16 19:16N 24°27' E 117°58'0 0.0
2015-Apr-16 18:04N 24°27' E 117°58'0 0.0
2015-Apr-16 17:10N 24°27' E 117°58'0 0.0
2015-Apr-16 16:10N 24°27' E 117°58'0 0.0
2015-Apr-16 12:22N 24°27' E 117°58'0 0.0
2015-Apr-16 11:22N 24°27' E 117°58'0 0.0
2015-Apr-16 10:10N 24°27' E 117°58'0 0.0
2015-Apr-16 09:10N 24°27' E 117°58'0 0.0
2015-Apr-16 07:16N 24°27' E 117°58'0 0.0
2015-Apr-16 06:22N 24°27' E 117°58'0 0.0
2015-Apr-16 02:16N 24°27' E 117°58'0 0.0
2015-Apr-15 23:16N 24°27' E 117°58'1 1.6
2015-Apr-15 22:33N 24°27' E 117°60'1010.0
2015-Apr-15 21:33N 24°21' E 118°09'7 7.0
2015-Apr-15 20:32N 24°16' E 118°14'1010.2
2015-Apr-15 19:33N 24°08' E 118°20'1211.9
2015-Apr-15 18:32N 23°57' E 118°13'1212.5
2015-Apr-15 17:33N 23°48' E 118°04'1212.0
2015-Apr-15 16:33N 23°38' E 117°57'1212.5
2015-Apr-15 15:33N 23°30' E 117°46'202 6.4
2015-Apr-14 08:07N 22°34' E 114°16'0 0.0
2015-Apr-14 03:31N 22°34' E 114°16'0 0.2
2015-Apr-14 01:31N 22°34' E 114°16'21 4.8
2015-Apr-13 21:10N 22°17' E 114°29'1 1.1
2015-Apr-13 20:22N 22°18' E 114°30'6 3.1
2015-Apr-13 18:33N 22°12' E 114°28'1311.9
2015-Apr-13 17:26N 22°08' E 114°15'1211.0
2015-Apr-13 16:23N 22°16' E 114°06'4 3.8
2015-Apr-13 15:28N 22°20' E 114°08'0 0.0
2015-Apr-13 14:31N 22°20' E 114°08'0 0.0
2015-Apr-13 13:25N 22°20' E 114°08'0 0.0
2015-Apr-13 11:34N 22°20' E 114°08'0 0.0
2015-Apr-13 10:33N 22°20' E 114°08'0 0.0
2015-Apr-13 09:03N 22°20' E 114°08'0 0.0
2015-Apr-13 08:27N 22°20' E 114°08'0 0.0
2015-Apr-13 06:27N 22°20' E 114°08'0 0.0
2015-Apr-13 05:21N 22°20' E 114°08'0 0.0
2015-Apr-13 04:21N 22°20' E 114°08'0 0.0
2015-Apr-13 02:30N 22°20' E 114°08'0 0.0
2015-Apr-13 01:06N 22°20' E 114°08'0 0.0
2015-Apr-13 00:30N 22°20' E 114°08'0 0.0
2015-Apr-12 23:21N 22°20' E 114°08'0 0.0
2015-Apr-12 22:30N 22°20' E 114°08'0 0.0
2015-Apr-12 21:33N 22°20' E 114°08'0 0.0
2015-Apr-12 20:33N 22°20' E 114°08'0 0.2
2015-Apr-12 19:32N 22°20' E 114°07'7 6.6
2015-Apr-12 18:26N 22°13' E 114°10'8 7.6
2015-Apr-12 17:24N 22°09' E 114°17'7 8.1
2015-Apr-12 16:32N 22°11' E 114°24'1 0.7
2015-Apr-12 15:32N 22°12' E 114°25'1 1.3
2015-Apr-12 14:33N 22°13' E 114°26'8 7.3
2015-Apr-12 13:28N 22°20' E 114°30'18 1.1
2015-Apr-11 22:03N 22°34' E 114°19'17 6.7
2015-Apr-11 19:33N 22°23' E 114°32'2 0.1
2015-Apr-10 08:32N 22°23' E 114°35'0 0.0
2015-Apr-09 14:32N 22°23' E 114°35'0 0.0
2015-Apr-09 13:29N 22°23' E 114°35'0 0.0
2015-Apr-09 12:32N 22°23' E 114°35'0 0.1
2015-Apr-09 11:32N 22°23' E 114°35'26510.1
2015-Apr-08 09:10N 24°18' E 118°55'2313.7
2015-Apr-08 07:31N 24°31' E 119°15'  

Dump ship's entire track history